createdAt,value
2023-06-30T00:03:26.736Z,13.30
2023-06-30T00:08:29.782Z,13.24
2023-06-30T00:13:32.564Z,13.14
2023-06-30T00:18:35.354Z,13.02
2023-06-30T00:23:38.093Z,12.95
2023-06-30T00:28:40.823Z,12.93
2023-06-30T00:33:43.592Z,12.93
2023-06-30T00:38:46.381Z,12.94
2023-06-30T00:43:49.164Z,12.93
2023-06-30T00:48:52.095Z,12.93
2023-06-30T00:53:54.913Z,12.92
2023-06-30T00:58:59.358Z,12.87
2023-06-30T01:04:30.301Z,12.88
2023-06-30T01:09:39.211Z,12.87
2023-06-30T01:14:43.604Z,12.82
2023-06-30T01:19:49.376Z,12.77
2023-06-30T01:24:57.840Z,12.75
2023-06-30T01:30:00.772Z,12.78
2023-06-30T01:35:03.678Z,12.73
2023-06-30T01:40:07.309Z,12.65
2023-06-30T01:45:11.216Z,12.60
2023-06-30T01:50:16.181Z,12.60
2023-06-30T01:55:18.956Z,12.62
2023-06-30T02:00:21.841Z,12.62
2023-06-30T02:05:24.667Z,12.58
2023-06-30T02:10:27.603Z,12.58
2023-06-30T02:15:30.389Z,12.55
2023-06-30T02:20:33.895Z,12.53
2023-06-30T02:25:36.693Z,12.55
2023-06-30T02:30:39.462Z,12.60
2023-06-30T02:35:43.415Z,12.65
2023-06-30T02:40:47.384Z,12.65
2023-06-30T02:45:50.220Z,12.62
2023-06-30T02:50:53.056Z,12.61
2023-06-30T02:55:55.780Z,12.63
2023-06-30T03:00:58.799Z,12.64
2023-06-30T03:06:01.572Z,12.69
2023-06-30T03:11:04.312Z,12.84
2023-06-30T03:16:08.361Z,13.00
2023-06-30T03:21:11.347Z,13.18
2023-06-30T03:26:15.285Z,13.43
2023-06-30T03:31:18.447Z,13.67
2023-06-30T03:36:21.357Z,13.89
2023-06-30T03:41:24.114Z,14.13
2023-06-30T03:46:26.842Z,14.37
2023-06-30T03:51:29.649Z,14.63
2023-06-30T03:56:32.513Z,14.76
2023-06-30T04:01:35.584Z,14.83
2023-06-30T04:06:38.393Z,14.89
2023-06-30T04:11:41.186Z,14.94
2023-06-30T04:16:43.887Z,14.95
2023-06-30T04:21:48.125Z,14.95
2023-06-30T04:26:50.975Z,15.03
2023-06-30T04:31:53.674Z,15.27
2023-06-30T04:36:56.439Z,15.55
2023-06-30T04:42:00.251Z,15.96
2023-06-30T04:47:03.069Z,16.42
2023-06-30T04:52:06.249Z,16.74
2023-06-30T04:57:09.100Z,17.09
2023-06-30T05:02:11.844Z,17.52
2023-06-30T05:07:14.622Z,17.88
2023-06-30T05:12:17.460Z,18.14
2023-06-30T05:17:20.415Z,18.49
2023-06-30T05:22:23.335Z,18.91
2023-06-30T05:27:26.128Z,19.53
2023-06-30T05:32:28.941Z,19.94
2023-06-30T05:37:31.775Z,20.18
2023-06-30T05:42:34.527Z,20.48
2023-06-30T05:47:37.755Z,20.80
2023-06-30T05:52:40.630Z,21.03
2023-06-30T05:57:43.431Z,21.23
2023-06-30T06:02:46.262Z,21.32
2023-06-30T06:07:49.878Z,21.48
2023-06-30T06:12:55.477Z,21.79
2023-06-30T06:17:58.271Z,22.08
2023-06-30T06:23:01.074Z,22.28
2023-06-30T06:28:03.857Z,22.51
2023-06-30T06:33:06.652Z,22.72
2023-06-30T06:38:09.539Z,23.07
2023-06-30T06:43:12.683Z,23.50
2023-06-30T06:48:26.198Z,23.81
2023-06-30T06:53:34.532Z,23.98
2023-06-30T06:58:37.374Z,24.02
2023-06-30T07:03:40.537Z,24.06
2023-06-30T07:08:43.479Z,24.28
2023-06-30T07:13:46.253Z,24.48
2023-06-30T07:18:49.058Z,24.46
2023-06-30T07:23:53.694Z,24.52
2023-06-30T07:28:56.460Z,24.61
2023-06-30T07:33:59.279Z,24.70
2023-06-30T07:39:02.205Z,24.61
2023-06-30T07:44:05.400Z,24.41
2023-06-30T07:49:08.273Z,24.05
2023-06-30T07:54:11.172Z,23.95
2023-06-30T07:59:14.123Z,24.38
2023-06-30T08:04:18.482Z,24.61
2023-06-30T08:09:21.519Z,24.55
2023-06-30T08:14:24.280Z,24.75
2023-06-30T08:19:47.674Z,24.96
2023-06-30T08:24:49.985Z,25.03
2023-06-30T08:29:52.817Z,25.14
2023-06-30T08:34:55.557Z,25.35
2023-06-30T08:39:58.371Z,25.71
2023-06-30T08:45:03.931Z,26.11
2023-06-30T08:50:07.923Z,26.40
2023-06-30T08:55:11.689Z,26.61
2023-06-30T09:00:16.059Z,26.82
2023-06-30T09:05:19.184Z,27.01
2023-06-30T09:10:28.654Z,27.28
2023-06-30T09:15:32.991Z,27.17
2023-06-30T09:20:37.628Z,27.18
2023-06-30T09:25:41.358Z,27.14
2023-06-30T09:30:47.101Z,27.13
2023-06-30T09:35:50.742Z,27.12
2023-06-30T09:40:53.621Z,26.96
2023-06-30T09:45:58.544Z,26.83
2023-06-30T09:51:01.476Z,26.76
2023-06-30T09:56:05.065Z,27.00
2023-06-30T10:01:09.397Z,27.28
2023-06-30T10:06:12.432Z,27.00
2023-06-30T10:11:15.769Z,26.49
2023-06-30T10:16:22.067Z,26.48
2023-06-30T10:21:25.152Z,26.75
2023-06-30T10:26:29.323Z,26.95
2023-06-30T10:31:34.060Z,26.98
2023-06-30T10:36:38.313Z,26.75
2023-06-30T10:41:51.225Z,26.73
2023-06-30T10:46:57.332Z,26.68
2023-06-30T10:52:06.513Z,26.57
2023-06-30T10:57:15.733Z,26.85
2023-06-30T11:02:18.587Z,27.40
2023-06-30T11:07:27.205Z,27.69
2023-06-30T11:12:51.157Z,27.65
2023-06-30T11:17:54.017Z,27.97
2023-06-30T11:22:59.017Z,27.88
2023-06-30T11:28:04.372Z,27.87
2023-06-30T11:33:08.369Z,27.47
2023-06-30T11:38:11.187Z,26.94
2023-06-30T11:43:15.008Z,26.62
2023-06-30T11:48:17.810Z,26.35
2023-06-30T11:53:20.817Z,26.36
2023-06-30T11:58:23.660Z,26.29
2023-06-30T12:03:28.365Z,26.24
2023-06-30T12:08:36.506Z,26.22
2023-06-30T12:13:43.212Z,26.37
2023-06-30T12:18:46.587Z,26.54
2023-06-30T12:23:49.565Z,26.43
2023-06-30T12:28:52.414Z,26.28
2023-06-30T12:33:55.426Z,26.45
2023-06-30T12:38:58.254Z,26.84
2023-06-30T12:44:02.430Z,27.31
2023-06-30T12:49:06.694Z,27.54
2023-06-30T12:54:09.511Z,27.23
2023-06-30T12:59:12.357Z,26.73
2023-06-30T13:04:16.035Z,26.37
2023-06-30T13:09:19.560Z,26.06
2023-06-30T13:14:22.361Z,25.91
2023-06-30T13:19:26.272Z,25.83
2023-06-30T13:24:29.007Z,25.74
2023-06-30T13:29:33.184Z,25.61
2023-06-30T13:34:36.061Z,25.37
2023-06-30T13:39:38.931Z,25.23
2023-06-30T13:44:41.899Z,25.32
2023-06-30T13:49:44.677Z,25.32
2023-06-30T13:54:47.425Z,25.23
2023-06-30T13:59:50.213Z,25.57
2023-06-30T14:04:53.020Z,26.29
2023-06-30T14:09:57.348Z,26.70
2023-06-30T14:15:00.144Z,27.35
2023-06-30T14:20:04.518Z,27.96
2023-06-30T14:25:07.715Z,28.82
2023-06-30T14:30:10.936Z,29.74
2023-06-30T14:35:13.998Z,30.36
2023-06-30T14:40:16.939Z,31.44
2023-06-30T14:45:19.726Z,31.44
2023-06-30T14:50:23.946Z,31.13
2023-06-30T14:55:26.710Z,30.91
2023-06-30T15:00:29.509Z,30.82
2023-06-30T15:05:33.258Z,30.30
2023-06-30T15:10:36.026Z,29.71
2023-06-30T15:15:39.025Z,29.19
2023-06-30T15:20:41.829Z,28.76
2023-06-30T15:25:44.853Z,28.77
2023-06-30T15:30:48.321Z,29.19
2023-06-30T15:35:51.372Z,29.87
2023-06-30T15:40:59.620Z,31.56
2023-06-30T15:46:06.289Z,31.79
2023-06-30T15:51:09.069Z,31.29
2023-06-30T15:56:11.886Z,30.42
2023-06-30T16:01:15.015Z,29.62
2023-06-30T16:06:17.800Z,28.65
2023-06-30T16:11:20.623Z,27.57
2023-06-30T16:16:23.547Z,26.68
2023-06-30T16:21:26.580Z,25.80
2023-06-30T16:26:29.342Z,25.09
2023-06-30T16:31:32.082Z,24.52
2023-06-30T16:36:34.885Z,23.68
2023-06-30T16:41:37.664Z,21.44
2023-06-30T16:46:40.509Z,19.43
2023-06-30T16:51:43.983Z,18.37
2023-06-30T16:56:47.263Z,17.92
2023-06-30T17:01:56.273Z,17.74
2023-06-30T17:06:59.743Z,17.67
2023-06-30T17:12:02.744Z,17.74
2023-06-30T17:17:06.002Z,17.77
2023-06-30T17:22:08.945Z,17.78
2023-06-30T17:27:12.141Z,17.81
2023-06-30T17:32:14.964Z,17.81
2023-06-30T17:37:17.754Z,17.89
2023-06-30T17:42:20.636Z,18.00
2023-06-30T17:47:23.443Z,18.01
2023-06-30T17:52:26.273Z,18.06
2023-06-30T17:57:29.090Z,18.12
2023-06-30T18:02:31.921Z,18.19
2023-06-30T18:07:34.977Z,18.20
2023-06-30T18:12:37.782Z,18.16
2023-06-30T18:17:40.714Z,18.10
2023-06-30T18:22:43.607Z,18.13
2023-06-30T18:27:46.401Z,18.24
2023-06-30T18:32:49.205Z,18.14
2023-06-30T18:37:51.979Z,17.94
2023-06-30T18:42:54.755Z,17.78
2023-06-30T18:47:57.618Z,17.61
2023-06-30T18:53:00.663Z,17.46
2023-06-30T18:58:04.196Z,17.40
2023-06-30T19:03:09.847Z,17.42
2023-06-30T19:08:12.771Z,17.50
2023-06-30T19:13:15.901Z,17.58
2023-06-30T19:18:20.913Z,17.49
2023-06-30T19:23:23.749Z,17.45
2023-06-30T19:28:27.057Z,17.35
2023-06-30T19:33:31.446Z,17.31
2023-06-30T19:38:34.553Z,17.39
2023-06-30T19:43:37.464Z,17.32
2023-06-30T19:48:45.239Z,17.29
2023-06-30T19:53:48.035Z,17.43
2023-06-30T19:58:50.861Z,17.56
2023-06-30T20:03:54.146Z,17.63
2023-06-30T20:08:56.930Z,17.84
2023-06-30T20:13:59.758Z,17.88
2023-06-30T20:19:02.577Z,17.81
2023-06-30T20:24:05.585Z,17.76
2023-06-30T20:29:08.562Z,17.78
2023-06-30T20:34:11.776Z,17.76
2023-06-30T20:39:14.504Z,17.87
2023-06-30T20:44:17.297Z,17.84
2023-06-30T20:49:20.939Z,17.66
2023-06-30T20:54:23.806Z,17.46
2023-06-30T20:59:28.021Z,17.34
2023-06-30T21:04:30.877Z,17.27
2023-06-30T21:09:33.764Z,17.23
2023-06-30T21:14:36.559Z,17.21
2023-06-30T21:19:40.950Z,17.20
2023-06-30T21:24:45.145Z,17.21
2023-06-30T21:29:47.889Z,17.23
2023-06-30T21:34:50.729Z,17.22
2023-06-30T21:39:53.517Z,17.18
2023-06-30T21:44:56.322Z,17.17
2023-06-30T21:49:59.223Z,17.14
2023-06-30T21:55:03.772Z,17.04
2023-06-30T22:00:08.807Z,16.88
2023-06-30T22:05:12.434Z,16.71
2023-06-30T22:10:15.367Z,16.52
2023-06-30T22:15:18.219Z,16.19
2023-06-30T22:20:23.047Z,15.96
2023-06-30T22:25:25.894Z,15.81
2023-06-30T22:30:29.485Z,15.72
2023-06-30T22:35:32.246Z,15.71
2023-06-30T22:40:34.933Z,15.61
2023-06-30T22:45:38.075Z,15.58
2023-06-30T22:50:40.929Z,15.53
2023-06-30T22:55:43.636Z,15.49
2023-06-30T23:00:46.728Z,15.41
2023-06-30T23:05:49.684Z,15.28
2023-06-30T23:10:52.335Z,15.25
2023-06-30T23:15:56.332Z,15.18
2023-06-30T23:20:59.062Z,15.06
2023-06-30T23:26:02.946Z,14.98
2023-06-30T23:31:06.430Z,14.89
2023-06-30T23:36:10.988Z,14.82
2023-06-30T23:41:13.855Z,14.77
2023-06-30T23:46:21.359Z,14.75
2023-06-30T23:51:24.234Z,14.79
2023-06-30T23:56:27.074Z,14.80
